createdAt,value
2019-04-30T00:10:02.549Z,10.03
2019-04-30T00:15:11.098Z,11.00
2019-04-30T00:20:18.445Z,7.67
2019-04-30T00:25:28.588Z,9.55
2019-04-30T00:30:39.334Z,11.03
2019-04-30T00:35:45.392Z,16.32
2019-04-30T00:40:52.448Z,12.20
2019-04-30T00:45:59.452Z,10.70
2019-04-30T00:51:07.527Z,13.80
2019-04-30T00:56:19.996Z,12.10
2019-04-30T01:01:43.591Z,13.55
2019-04-30T01:11:55.301Z,12.75
2019-04-30T01:17:03.916Z,8.45
2019-04-30T01:22:11.434Z,12.00
2019-04-30T01:27:20.275Z,14.93
2019-04-30T01:32:28.728Z,9.63
2019-04-30T01:37:39.292Z,9.30
2019-04-30T01:42:48.681Z,10.35
2019-04-30T01:48:00.624Z,11.35
2019-04-30T01:53:04.747Z,9.13
2019-04-30T01:58:33.349Z,10.23
2019-04-30T02:03:40.452Z,7.15
2019-04-30T02:08:49.277Z,9.23
2019-04-30T02:13:56.577Z,12.10
2019-04-30T02:19:04.580Z,10.38
2019-04-30T02:24:11.590Z,8.60
2019-04-30T02:29:19.109Z,9.20
2019-04-30T02:34:39.823Z,15.05
2019-04-30T02:39:46.114Z,10.43
2019-04-30T02:44:54.123Z,8.87
2019-04-30T02:50:15.227Z,9.80
2019-04-30T02:55:19.468Z,7.80
2019-04-30T03:00:32.527Z,10.60
2019-04-30T03:05:35.588Z,10.75
2019-04-30T03:10:42.568Z,10.78
2019-04-30T03:15:49.530Z,8.20
2019-04-30T03:21:21.265Z,11.95
2019-04-30T03:31:35.731Z,9.00
2019-04-30T03:36:42.608Z,11.00
2019-04-30T03:41:50.134Z,16.15
2019-04-30T03:46:59.290Z,9.98
2019-04-30T03:52:06.484Z,8.85
2019-04-30T03:57:13.508Z,13.55
2019-04-30T04:02:40.480Z,10.53
2019-04-30T04:08:05.237Z,9.08
2019-04-30T04:13:13.061Z,11.25
2019-04-30T04:18:20.482Z,11.85
2019-04-30T04:23:32.863Z,12.45
2019-04-30T04:33:45.918Z,7.58
2019-04-30T04:38:52.593Z,8.93
2019-04-30T04:44:00.239Z,10.38
2019-04-30T04:54:13.458Z,9.18
2019-04-30T04:59:20.562Z,10.50
2019-04-30T05:04:29.816Z,14.30
2019-04-30T05:09:37.467Z,9.94
2019-04-30T05:14:44.446Z,8.90
2019-04-30T05:19:51.440Z,11.20
2019-04-30T05:24:58.985Z,10.32
2019-04-30T05:30:07.061Z,8.00
2019-04-30T05:35:14.565Z,11.70
2019-04-30T05:40:21.580Z,11.78
2019-04-30T05:45:30.595Z,8.03
2019-04-30T05:50:39.073Z,14.83
2019-04-30T05:55:46.431Z,9.15
2019-04-30T06:00:53.447Z,7.28
2019-04-30T06:06:00.503Z,8.43
2019-04-30T06:11:12.264Z,8.78
2019-04-30T06:16:23.269Z,9.53
2019-04-30T06:21:30.507Z,13.20
2019-04-30T06:26:39.352Z,7.47
2019-04-30T06:31:48.517Z,6.08
2019-04-30T06:36:57.123Z,7.97
2019-04-30T06:42:10.161Z,7.95
2019-04-30T06:47:14.613Z,11.03
2019-04-30T06:52:23.519Z,8.78
2019-04-30T06:57:30.439Z,9.10
2019-04-30T07:02:39.304Z,9.33
2019-04-30T07:08:09.285Z,9.88
2019-04-30T07:13:29.688Z,14.85
2019-04-30T07:18:38.660Z,10.60
2019-04-30T07:23:45.893Z,7.70
2019-04-30T07:28:55.353Z,9.90
2019-04-30T07:34:01.462Z,6.75
2019-04-30T07:39:10.081Z,6.15
2019-04-30T07:44:31.157Z,7.47
2019-04-30T07:49:45.944Z,9.98
2019-04-30T07:59:41.431Z,7.22
2019-04-30T08:05:03.259Z,7.40
2019-04-30T08:15:19.761Z,4.97
2019-04-30T08:20:29.702Z,10.10
2019-04-30T08:25:36.594Z,5.78
2019-04-30T08:30:45.635Z,13.22
2019-04-30T08:35:52.599Z,7.20
2019-04-30T08:41:00.855Z,4.90
2019-04-30T08:46:09.430Z,6.85
2019-04-30T08:51:19.253Z,6.50
2019-04-30T08:56:26.445Z,5.75
2019-04-30T09:01:33.590Z,6.75
2019-04-30T09:06:40.558Z,4.42
2019-04-30T09:11:53.062Z,5.05
2019-04-30T09:16:56.486Z,4.70
2019-04-30T09:22:03.480Z,4.85
2019-04-30T09:27:10.882Z,8.90
2019-04-30T09:32:19.284Z,5.45
2019-04-30T09:37:26.567Z,9.65
2019-04-30T09:42:33.555Z,5.47
2019-04-30T09:47:42.065Z,8.40
2019-04-30T09:52:49.959Z,5.40
2019-04-30T09:57:58.891Z,5.22
2019-04-30T10:03:07.521Z,8.95
2019-04-30T10:08:15.464Z,4.25
2019-04-30T10:13:22.478Z,7.53
2019-04-30T10:18:29.560Z,5.15
2019-04-30T10:23:36.476Z,11.03
2019-04-30T10:28:46.284Z,5.83
2019-04-30T10:38:59.694Z,4.10
2019-04-30T10:44:08.904Z,10.35
2019-04-30T10:49:16.105Z,9.80
2019-04-30T10:54:26.359Z,11.40
2019-04-30T11:14:51.587Z,5.07
2019-04-30T11:19:59.200Z,5.50
2019-04-30T11:25:07.416Z,9.70
2019-04-30T11:30:21.361Z,5.17
2019-04-30T11:35:25.268Z,8.43
2019-04-30T11:40:36.954Z,8.03
2019-04-30T11:47:25.461Z,7.58
2019-04-30T11:52:32.626Z,6.28
2019-04-30T11:57:41.056Z,5.40
2019-04-30T12:02:52.598Z,9.90
2019-04-30T12:18:31.573Z,7.17
2019-04-30T12:23:38.612Z,6.05
2019-04-30T12:32:25.688Z,5.05
2019-04-30T12:37:32.670Z,7.30
2019-04-30T12:42:39.779Z,8.48
2019-04-30T12:47:51.881Z,9.68
2019-04-30T12:58:12.266Z,6.85
2019-04-30T13:03:20.598Z,4.40
2019-04-30T13:12:21.770Z,8.73
2019-04-30T13:22:48.854Z,5.50
2019-04-30T13:28:03.054Z,8.95
2019-04-30T13:38:01.539Z,4.30
2019-04-30T13:45:53.667Z,5.65
2019-04-30T13:58:16.373Z,8.28
2019-04-30T14:03:38.961Z,6.15
2019-04-30T14:08:50.579Z,8.03
2019-04-30T14:13:59.679Z,7.30
2019-04-30T14:19:10.957Z,6.35
2019-04-30T14:30:09.365Z,4.70
2019-04-30T14:35:19.364Z,3.45
2019-04-30T14:40:30.376Z,6.58
2019-04-30T14:45:56.670Z,8.40
2019-04-30T14:51:04.730Z,3.08
2019-04-30T14:56:20.334Z,7.05
2019-04-30T15:01:37.431Z,7.53
2019-04-30T15:10:05.367Z,13.95
2019-04-30T15:18:54.841Z,9.00
2019-04-30T15:26:57.678Z,6.17
2019-04-30T15:32:03.632Z,4.80
2019-04-30T15:39:43.320Z,3.75
2019-04-30T15:44:50.612Z,5.23
2019-04-30T15:53:31.844Z,6.17
2019-04-30T15:58:40.316Z,5.20
2019-04-30T16:08:58.863Z,4.60
2019-04-30T16:18:55.252Z,5.95
2019-04-30T16:34:16.573Z,2.67
2019-04-30T16:40:21.445Z,5.80
2019-04-30T16:50:41.668Z,4.17
2019-04-30T16:57:15.572Z,4.83
2019-04-30T17:02:24.476Z,2.58
2019-04-30T17:07:42.254Z,1.90
2019-04-30T17:14:25.853Z,8.83
2019-04-30T17:19:32.728Z,4.28
2019-04-30T17:24:39.781Z,5.62
2019-04-30T17:29:46.583Z,4.72
2019-04-30T17:34:53.655Z,6.08
2019-04-30T17:40:00.604Z,4.03
2019-04-30T17:49:29.701Z,3.12
2019-04-30T17:58:37.505Z,10.05
2019-04-30T18:03:44.698Z,6.17
2019-04-30T18:14:23.931Z,4.33
2019-04-30T18:29:07.603Z,7.08
2019-04-30T18:39:26.374Z,5.90
2019-04-30T18:44:33.563Z,7.25
2019-04-30T18:51:42.632Z,10.72
2019-04-30T18:56:48.985Z,14.75
2019-04-30T19:01:56.465Z,12.75
2019-04-30T19:11:33.209Z,8.33
2019-04-30T19:20:49.585Z,12.55
2019-04-30T19:25:59.565Z,13.13
2019-04-30T19:31:09.226Z,13.37
2019-04-30T19:36:18.331Z,12.43
2019-04-30T19:42:00.914Z,9.63
2019-04-30T19:47:09.315Z,12.65
2019-04-30T19:52:19.003Z,10.32
2019-04-30T19:57:25.460Z,14.90
2019-04-30T20:05:43.660Z,20.57
2019-04-30T20:13:33.087Z,15.10
2019-04-30T20:19:01.657Z,21.90
2019-04-30T20:24:08.581Z,22.85
2019-04-30T20:29:15.600Z,34.08
2019-04-30T20:38:54.270Z,28.00
2019-04-30T20:44:06.641Z,23.22
2019-04-30T20:54:34.249Z,19.37
2019-04-30T20:59:44.264Z,22.05
2019-04-30T21:04:51.481Z,18.87
2019-04-30T21:14:02.314Z,14.65
2019-04-30T21:28:29.757Z,10.72
2019-04-30T21:33:47.732Z,14.93
2019-04-30T21:40:20.022Z,13.55
2019-04-30T21:45:29.166Z,11.68
2019-04-30T21:58:09.799Z,14.65
2019-04-30T22:03:16.770Z,13.93
2019-04-30T22:08:23.723Z,15.55
2019-04-30T22:13:30.669Z,14.43
2019-04-30T22:24:31.276Z,14.15
2019-04-30T22:36:38.828Z,26.07
2019-04-30T22:46:19.742Z,39.90
2019-04-30T22:51:26.647Z,37.08
2019-04-30T23:01:44.307Z,25.45
2019-04-30T23:06:51.636Z,27.22
2019-04-30T23:11:58.585Z,26.33
2019-04-30T23:17:06.254Z,25.50
2019-04-30T23:22:13.448Z,35.63
2019-04-30T23:27:20.449Z,29.40
2019-04-30T23:32:27.649Z,23.07
2019-04-30T23:37:34.573Z,21.07
2019-04-30T23:42:41.601Z,22.25
2019-04-30T23:47:48.584Z,18.27
2019-04-30T23:53:00.291Z,21.80
2019-04-30T23:58:07.567Z,17.30
